Time;durP1;ratioP1;P1;durP2;ratioP2;P2;SDS_P1;SDS_P2;PMS_P1;PMS_P2;Temp;Humidity;BMP_temperature;BMP_pressure;BME280_temperature;BME280_humidity;BME280_pressure;Samples;Min_cycle;Max_cycle;Signal;HPM_P1;HPM_P2
2023/10/25 00:01:14;;;;;;;;;2.33;2.00;;;;;13.79;100.00;99750.59;5052666;28;45304;-79
2023/10/25 00:03:39;;;;;;;;;2.00;2.00;;;;;13.72;100.00;99737.91;5039821;28;48993;-78
2023/10/25 00:06:05;;;;;;;;;1.67;1.00;;;;;13.73;100.00;99736.94;5040852;28;45518;-80
2023/10/25 00:08:30;;;;;;;;;3.67;2.00;;;;;13.79;100.00;99752.41;5049468;28;45707;-80
2023/10/25 00:11:07;;;;;;;;;1.00;1.00;;;;;13.60;100.00;99713.13;5055459;28;45412;-79
2023/10/25 00:13:32;;;;;;;;;1.67;1.00;;;;;13.69;100.00;99731.00;5057664;28;45599;-79
2023/10/25 00:15:58;;;;;;;;;2.67;1.33;;;;;13.71;100.00;99730.91;5039238;28;45534;-79
2023/10/25 00:18:24;;;;;;;;;4.00;3.00;;;;;13.69;100.00;99735.47;5053907;28;46129;-79
2023/10/25 00:20:50;;;;;;;;;3.00;2.00;;;;;13.53;100.00;99709.25;5054036;28;45388;-79
2023/10/25 00:23:16;;;;;;;;;1.00;1.00;;;;;13.52;100.00;99711.06;5041385;28;45312;-79
2023/10/25 00:25:41;;;;;;;;;1.00;1.00;;;;;13.55;100.00;99729.41;5058021;28;45548;-79
2023/10/25 00:28:06;;;;;;;;;4.33;3.00;;;;;13.47;100.00;99723.00;5054694;28;45464;-79
2023/10/25 00:30:32;;;;;;;;;2.00;0.67;;;;;13.48;100.00;99732.66;5037380;28;45568;-78
2023/10/25 00:32:57;;;;;;;;;1.67;1.00;;;;;13.37;100.00;99728.16;5052456;28;45458;-78
2023/10/25 00:35:22;;;;;;;;;2.33;2.00;;;;;13.35;100.00;99732.72;5034963;28;45666;-78
2023/10/25 00:37:48;;;;;;;;;1.00;1.00;;;;;13.23;100.00;99714.22;5053871;28;50677;-78
2023/10/25 00:40:13;;;;;;;;;2.67;2.00;;;;;13.27;100.00;99731.63;5041587;28;51819;-76
2023/10/25 00:42:38;;;;;;;;;1.00;1.00;;;;;13.15;100.00;99706.84;5056547;28;45324;-76
2023/10/25 00:45:04;;;;;;;;;1.00;1.00;;;;;13.19;100.00;99708.28;5056931;28;50940;-77
2023/10/25 00:47:29;;;;;;;;;1.00;1.00;;;;;13.15;100.00;99706.84;5052256;28;46342;-77
2023/10/25 00:49:55;;;;;;;;;2.33;1.33;;;;;13.08;100.00;99687.00;5056085;28;45399;-78
2023/10/25 00:52:20;;;;;;;;;1.00;1.00;;;;;13.07;100.00;99696.78;5053808;28;45358;-78
2023/10/25 00:54:47;;;;;;;;;2.00;2.00;;;;;13.00;100.00;99666.34;5068508;28;45522;-77
2023/10/25 00:57:14;;;;;;;;;6.33;2.33;;;;;12.97;100.00;99668.38;5062256;28;46212;-78
2023/10/25 00:59:40;;;;;;;;;0.67;0.67;;;;;12.98;100.00;99649.69;5042394;28;45475;-77
2023/10/25 01:02:07;;;;;;;;;3.33;2.33;;;;;12.99;100.00;99664.63;5046485;28;45468;-77
2023/10/25 01:04:34;;;;;;;;;1.00;1.00;;;;;12.94;100.00;99653.53;5058044;28;45286;-77
2023/10/25 01:06:59;;;;;;;;;2.00;2.00;;;;;12.90;100.00;99653.88;5054982;28;46440;-78
2023/10/25 01:09:25;;;;;;;;;2.00;1.67;;;;;12.77;100.00;99611.47;5048693;28;45376;-79
2023/10/25 01:11:50;;;;;;;;;1.00;1.00;;;;;12.87;100.00;99633.72;5030830;28;46192;-78
2023/10/25 01:14:16;;;;;;;;;2.00;1.00;;;;;12.78;100.00;99615.84;5060127;28;45576;-78
2023/10/25 01:16:41;;;;;;;;;1.00;1.00;;;;;12.71;100.00;99617.25;5038952;28;56227;-79
2023/10/25 01:19:06;;;;;;;;;2.00;2.00;;;;;12.75;100.00;99616.06;5057139;28;45474;-79
2023/10/25 01:21:32;;;;;;;;;1.00;1.00;;;;;12.73;100.00;99617.97;5047272;28;45359;-79
2023/10/25 01:23:57;;;;;;;;;1.67;1.00;;;;;12.77;100.00;99608.84;5054952;28;45425;-78
2023/10/25 01:26:22;;;;;;;;;1.33;1.33;;;;;12.66;100.00;99582.28;5044433;28;45946;-78
2023/10/25 01:28:48;;;;;;;;;1.00;1.00;;;;;12.65;100.00;99577.94;5057020;28;45314;-77
2023/10/25 01:31:13;;;;;;;;;2.00;1.00;;;;;12.53;100.00;99533.78;5056441;28;47949;-78
2023/10/25 01:33:38;;;;;;;;;3.00;1.00;;;;;12.64;100.00;99540.88;5052462;28;45474;-79
2023/10/25 01:36:04;;;;;;;;;1.00;1.00;;;;;12.66;100.00;99531.88;5049297;28;45387;-79
2023/10/25 01:38:29;;;;;;;;;1.00;1.00;;;;;12.73;100.00;99538.38;5033482;28;45302;-80
2023/10/25 01:40:54;;;;;;;;;2.00;1.00;;;;;12.54;100.00;99500.97;5058100;28;45639;-79
2023/10/25 01:43:21;;;;;;;;;2.00;2.00;;;;;12.70;100.00;99517.41;5034203;28;45571;-79
2023/10/25 01:45:46;;;;;;;;;1.00;1.00;;;;;12.53;100.00;99497.47;5035279;28;47833;-78
2023/10/25 01:48:12;;;;;;;;;1.00;1.00;;;;;12.69;100.00;99517.53;5035664;28;45485;-79
2023/10/25 01:50:37;;;;;;;;;2.00;1.00;;;;;12.66;100.00;99523.94;5052575;28;45598;-79
2023/10/25 01:53:02;;;;;;;;;1.00;1.00;;;;;12.55;100.00;99486.75;5038426;28;45397;-79
2023/10/25 01:55:27;;;;;;;;;1.00;1.00;;;;;12.65;100.00;99495.69;5070718;28;45269;-79
2023/10/25 01:57:53;;;;;;;;;1.00;1.00;;;;;12.51;100.00;99464.91;5047884;28;45257;-78
2023/10/25 02:00:18;;;;;;;;;1.00;1.00;;;;;12.57;100.00;99473.34;5057020;28;45288;-78
2023/10/25 02:02:44;;;;;;;;;0.00;0.00;;;;;12.59;100.00;99476.75;5056334;28;45506;-79
2023/10/25 02:05:09;;;;;;;;;1.00;1.00;;;;;12.51;100.00;99448.16;5051596;28;45597;-79
2023/10/25 02:07:35;;;;;;;;;1.00;1.00;;;;;12.65;100.00;99466.53;5056128;28;45557;-79
2023/10/25 02:10:00;;;;;;;;;3.00;2.00;;;;;12.62;100.00;99455.28;5056906;28;45488;-79
2023/10/25 02:12:25;;;;;;;;;2.00;1.67;;;;;12.66;100.00;99454.09;5056617;28;45411;-79
2023/10/25 02:14:51;;;;;;;;;0.67;0.67;;;;;12.61;100.00;99429.72;5030807;28;46165;-79
2023/10/25 02:17:17;;;;;;;;;1.00;1.00;;;;;12.56;100.00;99418.66;5055338;28;45333;-79
2023/10/25 02:19:45;;;;;;;;;4.00;2.00;;;;;12.67;100.00;99430.09;5047145;28;45607;-78
2023/10/25 02:22:10;;;;;;;;;3.00;1.67;;;;;12.58;100.00;99422.84;5059054;28;45535;-78
2023/10/25 02:24:35;;;;;;;;;7.00;1.67;;;;;12.53;100.00;99395.88;5051176;28;45494;-78
2023/10/25 02:27:01;;;;;;;;;2.00;2.00;;;;;12.65;100.00;99418.78;5025696;28;60533;-79
2023/10/25 02:29:26;;;;;;;;;1.00;1.00;;;;;12.70;100.00;99413.09;5023389;28;45217;-78
2023/10/25 02:31:51;;;;;;;;;1.00;1.00;;;;;12.62;100.00;99378.38;5035693;28;45254;-78
2023/10/25 02:34:16;;;;;;;;;2.33;1.00;;;;;12.64;100.00;99379.94;5022123;28;47801;-78
2023/10/25 02:36:42;;;;;;;;;1.00;1.00;;;;;12.66;100.00;99372.72;5040775;28;45503;-78
2023/10/25 02:39:08;;;;;;;;;2.00;1.00;;;;;12.60;100.00;99357.25;5042852;28;45303;-78
2023/10/25 02:41:34;;;;;;;;;0.67;0.67;;;;;12.64;100.00;99364.03;5032727;28;45968;-78
2023/10/25 02:43:59;;;;;;;;;1.33;0.33;;;;;12.74;100.00;99354.38;5057831;28;46301;-78
2023/10/25 02:46:25;;;;;;;;;1.00;1.00;;;;;12.72;100.00;99332.44;5055335;28;45651;-78
2023/10/25 02:48:51;;;;;;;;;2.00;0.67;;;;;12.78;100.00;99347.88;5052068;28;45455;-78
2023/10/25 02:51:17;;;;;;;;;1.00;1.00;;;;;12.79;100.00;99340.75;5035290;28;45383;-78
2023/10/25 02:53:42;;;;;;;;;1.00;1.00;;;;;12.81;100.00;99342.31;5053900;28;45332;-79
2023/10/25 02:56:08;;;;;;;;;1.00;1.00;;;;;12.75;100.00;99308.31;5049721;28;45843;-78
2023/10/25 02:58:34;;;;;;;;;2.67;1.00;;;;;12.88;100.00;99326.75;5060357;28;45337;-77
2023/10/25 03:01:00;;;;;;;;;1.00;1.00;;;;;12.89;100.00;99318.66;5057730;28;45622;-77
2023/10/25 03:03:33;;;;;;;;;1.00;1.00;;;;;12.84;100.00;99310.22;5040668;28;46533;-77
2023/10/25 03:05:59;;;;;;;;;1.33;1.33;;;;;12.88;100.00;99293.13;5035447;28;45480;-78
2023/10/25 03:08:26;;;;;;;;;1.00;1.00;;;;;12.88;100.00;99289.59;5060433;28;45447;-78
2023/10/25 03:10:51;;;;;;;;;2.00;1.00;;;;;12.96;100.00;99293.31;5032796;28;45664;-78
2023/10/25 03:13:16;;;;;;;;;1.33;1.00;;;;;12.84;100.00;99269.59;5059954;28;46271;-78
2023/10/25 03:15:42;;;;;;;;;2.00;1.00;;;;;12.97;100.00;99289.72;5029341;28;45346;-77
2023/10/25 03:18:08;;;;;;;;;0.00;0.00;;;;;12.82;100.00;99253.81;5060160;28;45672;-78
2023/10/25 03:20:34;;;;;;;;;1.00;1.00;;;;;12.97;100.00;99270.28;5060904;28;45399;-78
2023/10/25 03:22:59;;;;;;;;;1.00;1.00;;;;;12.96;100.00;99269.44;5061793;28;45408;-77
2023/10/25 03:25:24;;;;;;;;;1.00;1.00;;;;;12.98;100.00;99271.97;5049246;28;48219;-78
2023/10/25 03:27:50;;;;;;;;;2.33;1.33;;;;;12.96;100.00;99261.47;5041238;28;45335;-78
2023/10/25 03:30:16;;;;;;;;;2.00;2.00;;;;;13.03;100.00;99267.13;5039193;28;45502;-77
2023/10/25 03:32:43;;;;;;;;;5.00;4.00;;;;;12.97;100.00;99249.91;5062377;28;45643;-79
2023/10/25 03:35:08;;;;;;;;;4.67;4.00;;;;;13.01;100.00;99246.03;5063701;28;45497;-79
2023/10/25 03:37:35;;;;;;;;;2.67;2.67;;;;;12.88;100.00;99226.78;5036299;28;45555;-78
2023/10/25 03:40:00;;;;;;;;;2.33;2.33;;;;;12.90;100.00;99222.16;5022285;28;45684;-79
2023/10/25 03:42:26;;;;;;;;;6.67;5.67;;;;;13.01;100.00;99237.22;5055711;28;45440;-79
2023/10/25 03:44:52;;;;;;;;;3.67;3.67;;;;;13.06;100.00;99227.91;5054534;28;45788;-78
2023/10/25 03:47:17;;;;;;;;;6.00;3.00;;;;;13.07;100.00;99218.97;5058243;28;45212;-78
2023/10/25 03:49:42;;;;;;;;;6.00;4.00;;;;;13.00;100.00;99204.53;5055545;28;45493;-78
2023/10/25 03:52:07;;;;;;;;;4.67;3.00;;;;;13.11;100.00;99208.16;5054956;28;45360;-77
2023/10/25 03:54:37;;;;;;;;;2.00;2.00;;;;;13.11;100.00;99208.16;5058928;28;45377;-77
2023/10/25 03:57:02;;;;;;;;;2.00;2.00;;;;;13.04;100.00;99198.00;5035743;28;45462;-77
2023/10/25 03:59:27;;;;;;;;;2.00;2.00;;;;;13.04;100.00;99182.09;5055736;28;45471;-78
2023/10/25 04:01:53;;;;;;;;;3.33;2.00;;;;;13.07;100.00;99183.63;5037718;28;47796;-77
2023/10/25 04:04:18;;;;;;;;;2.00;1.00;;;;;12.96;100.00;99170.41;5041822;28;45440;-78
2023/10/25 04:06:43;;;;;;;;;2.33;1.67;;;;;13.13;100.00;99196.41;5053347;27;45286;-78
2023/10/25 04:09:09;;;;;;;;;2.00;2.00;;;;;13.14;100.00;99176.03;5056830;28;45338;-79
2023/10/25 04:11:34;;;;;;;;;3.00;2.00;;;;;13.17;100.00;99179.28;5048515;28;56116;-78
2023/10/25 04:13:59;;;;;;;;;3.00;2.00;;;;;13.10;100.00;99166.63;5046856;28;45420;-78
2023/10/25 04:16:24;;;;;;;;;3.00;2.00;;;;;13.06;100.00;99153.59;5035680;28;46153;-78
2023/10/25 04:18:50;;;;;;;;;5.33;3.00;;;;;13.19;100.00;99173.81;5047302;28;53556;-78
2023/10/25 04:21:15;;;;;;;;;1.00;1.00;;;;;13.06;100.00;99136.81;5044780;28;46074;-79
2023/10/25 04:23:40;;;;;;;;;2.00;1.00;;;;;13.12;100.00;99146.94;5039766;28;45636;-79
2023/10/25 04:26:10;;;;;;;;;1.00;1.00;;;;;13.22;100.00;99155.00;5034860;28;45528;-78
2023/10/25 04:28:37;;;;;;;;;1.00;1.00;;;;;13.15;100.00;99133.44;5038397;28;45819;-78
2023/10/25 04:31:03;;;;;;;;;3.00;2.00;;;;;13.18;100.00;99141.16;5043029;28;45645;-78
2023/10/25 04:33:29;;;;;;;;;3.00;2.33;;;;;13.25;100.00;99146.78;5058965;28;45487;-78
2023/10/25 04:35:55;;;;;;;;;2.00;2.00;;;;;13.28;100.00;99144.72;5056993;28;45604;-79
2023/10/25 04:38:23;;;;;;;;;1.00;1.00;;;;;13.32;100.00;99143.47;5055863;28;45525;-77
2023/10/25 04:40:49;;;;;;;;;2.00;1.00;;;;;13.31;100.00;99131.19;5059000;28;47414;-77
2023/10/25 04:43:14;;;;;;;;;2.00;2.00;;;;;13.34;100.00;99135.38;5070885;28;45221;-77
2023/10/25 04:45:39;;;;;;;;;2.00;2.00;;;;;13.37;100.00;99127.16;5030668;28;45286;-77
2023/10/25 04:48:05;;;;;;;;;1.00;1.00;;;;;13.27;100.00;99105.84;5040495;28;48707;-77
2023/10/25 04:50:34;;;;;;;;;1.00;1.00;;;;;13.33;100.00;99123.06;5044145;28;47286;-78
2023/10/25 04:53:02;;;;;;;;;1.00;1.00;;;;;13.37;100.00;99119.19;5058862;28;45637;-77
2023/10/25 04:55:29;;;;;;;;;1.00;1.00;;;;;13.36;100.00;99126.31;5036769;28;45326;-78
2023/10/25 04:57:56;;;;;;;;;1.67;1.00;;;;;13.41;100.00;99129.44;5051582;28;45457;-77
2023/10/25 05:00:21;;;;;;;;;4.67;1.33;;;;;13.34;100.00;99112.34;5049817;28;45522;-78
2023/10/25 05:02:47;;;;;;;;;1.00;1.00;;;;;13.37;100.00;99119.19;5053548;28;45459;-78
2023/10/25 05:05:12;;;;;;;;;2.00;2.00;;;;;13.44;100.00;99129.16;5057624;28;45443;-79
2023/10/25 05:07:38;;;;;;;;;1.00;1.00;;;;;13.36;100.00;99118.34;5057743;28;45659;-78
2023/10/25 05:10:08;;;;;;;;;2.00;1.00;;;;;13.46;100.00;99129.88;5053181;28;45429;-78
2023/10/25 05:12:45;;;;;;;;;0.00;0.00;;;;;13.48;100.00;99121.78;5052735;28;45456;-78
2023/10/25 05:15:12;;;;;;;;;0.00;0.00;;;;;13.48;100.00;99117.28;5057746;28;45395;-78
2023/10/25 05:17:38;;;;;;;;;0.00;0.00;;;;;13.53;100.00;99125.72;5037461;28;45589;-78
2023/10/25 07:14:36;;;;;;;;;0.33;0.33;;;;;13.57;100.00;99174.09;5111424;27;45191;-68
2023/10/25 07:17:02;;;;;;;;;0.33;0.33;;;;;13.75;100.00;99190.25;5093704;27;45408;-68
2023/10/25 07:19:27;;;;;;;;;2.00;0.00;;;;;13.84;100.00;99181.53;5092101;27;45476;-67
2023/10/25 07:21:53;;;;;;;;;2.00;1.00;;;;;13.88;100.00;99181.13;5086213;27;45734;-68
2023/10/25 07:24:18;;;;;;;;;1.00;1.00;;;;;13.97;100.00;99187.47;5094121;27;45292;-68
2023/10/25 07:26:43;;;;;;;;;0.00;0.00;;;;;14.01;100.00;99191.53;5095513;27;45241;-68
2023/10/25 07:29:09;;;;;;;;;0.00;0.00;;;;;14.08;100.00;99196.19;5100647;27;45278;-68
2023/10/25 07:31:34;;;;;;;;;1.00;1.00;;;;;14.06;100.00;99176.88;5085202;27;45366;-67
2023/10/25 07:33:59;;;;;;;;;0.00;0.00;;;;;14.13;100.00;99179.84;5092157;27;45303;-67
2023/10/25 07:36:25;;;;;;;;;0.00;0.00;;;;;14.16;100.00;99187.53;5091832;27;45220;-67
2023/10/25 07:38:51;;;;;;;;;0.00;0.00;;;;;14.23;100.00;99195.81;5089542;27;45459;-69
2023/10/25 07:41:16;;;;;;;;;0.00;0.00;;;;;14.26;100.00;99204.38;5092156;27;46967;-67
2023/10/25 07:43:43;;;;;;;;;0.00;0.00;;;;;14.30;100.00;99208.44;5087667;27;47268;-69
2023/10/25 07:46:09;;;;;;;;;0.00;0.00;;;;;14.30;100.00;99204.94;5094747;27;45348;-67
2023/10/25 07:48:34;;;;;;;;;0.00;0.00;;;;;14.32;100.00;99198.53;5087402;27;45462;-67
2023/10/25 07:51:06;;;;;;;;;0.00;0.00;;;;;14.23;100.00;99182.53;5085092;27;45541;-68
2023/10/25 07:53:32;;;;;;;;;0.00;0.00;;;;;14.40;100.00;99197.84;5090565;27;45464;-68
2023/10/25 07:56:01;;;;;;;;;0.00;0.00;;;;;14.28;100.00;99175.81;5086218;27;45337;-67
2023/10/25 07:58:27;;;;;;;;;0.00;0.00;;;;;14.38;100.00;99192.69;5073032;27;45288;-67
2023/10/25 08:00:53;;;;;;;;;1.33;1.00;;;;;14.26;100.00;99187.56;5075309;27;45815;-68
2023/10/25 08:03:18;;;;;;;;;0.00;0.00;;;;;14.45;100.00;99219.59;5070859;28;45415;-68
2023/10/25 08:05:44;;;;;;;;;0.00;0.00;;;;;14.44;100.00;99228.53;5089592;27;45409;-68
2023/10/25 08:08:09;;;;;;;;;0.00;0.00;;;;;14.32;100.00;99213.63;5075866;27;45293;-68
2023/10/25 08:10:34;;;;;;;;;1.00;1.00;;;;;14.32;100.00;99200.34;5090907;27;45731;-68
2023/10/25 08:13:00;;;;;;;;;0.00;0.00;;;;;14.30;100.00;99187.16;5087455;27;46142;-68
2023/10/25 08:15:25;;;;;;;;;0.00;0.00;;;;;14.48;100.00;99212.19;5075260;27;45601;-68
2023/10/25 08:17:53;;;;;;;;;1.00;1.00;;;;;14.30;100.00;99189.00;5078558;28;45660;-68
2023/10/25 08:20:18;;;;;;;;;2.00;1.00;;;;;14.52;100.00;99200.28;5079906;28;45547;-68
2023/10/25 08:22:44;;;;;;;;;0.00;0.00;;;;;14.59;100.00;99221.88;5055601;28;48024;-68
2023/10/25 08:25:09;;;;;;;;;0.00;0.00;;;;;14.51;100.00;99200.41;5052695;28;45561;-68
2023/10/25 08:27:35;;;;;;;;;0.00;0.00;;;;;14.60;100.00;99224.38;5078596;28;45468;-68
2023/10/25 08:30:01;;;;;;;;;0.00;0.00;;;;;14.57;100.00;99219.34;5077098;27;45476;-68
2023/10/25 08:32:26;;;;;;;;;0.00;0.00;;;;;14.52;100.00;99216.25;5073794;28;45246;-68
2023/10/25 08:34:51;;;;;;;;;0.00;0.00;;;;;14.31;100.00;99186.19;5077061;28;45325;-68
2023/10/25 08:37:17;;;;;;;;;0.67;0.67;;;;;14.58;100.00;99226.34;5076418;27;45245;-68
2023/10/25 08:39:43;;;;;;;;;0.33;0.33;;;;;14.58;100.00;99237.00;5074645;27;45369;-68
2023/10/25 08:42:11;;;;;;;;;0.00;0.00;;;;;14.54;100.00;99240.06;5077423;28;45444;-68
2023/10/25 08:44:40;;;;;;;;;0.00;0.00;;;;;14.57;100.00;99234.44;5067978;27;45516;-68
2023/10/25 08:47:06;;;;;;;;;0.00;0.00;;;;;14.48;100.00;99211.34;5073553;27;45533;-68
2023/10/25 08:49:32;;;;;;;;;0.00;0.00;;;;;14.48;100.00;99217.50;5059482;28;45479;-67
2023/10/25 08:51:59;;;;;;;;;0.00;0.00;;;;;14.53;100.00;99219.72;5061069;27;48061;-68
2023/10/25 08:54:25;;;;;;;;;0.00;0.00;;;;;14.58;100.00;99222.84;5057703;28;45682;-68
2023/10/25 08:56:51;;;;;;;;;0.00;0.00;;;;;14.58;100.00;99225.50;5076019;27;45722;-68
2023/10/25 08:59:16;;;;;;;;;0.33;0.00;;;;;14.60;100.00;99227.03;5057808;28;45442;-68
2023/10/25 09:01:43;;;;;;;;;0.00;0.00;;;;;14.52;100.00;99210.94;5056478;28;47527;-78
2023/10/25 09:04:09;;;;;;;;;0.00;0.00;;;;;14.67;100.00;99230.00;5075437;27;45405;-68
2023/10/25 09:06:34;;;;;;;;;1.00;0.00;;;;;14.68;100.00;99234.34;5071154;27;45503;-68
2023/10/25 09:09:05;;;;;;;;;0.00;0.00;;;;;14.42;100.00;99190.59;5083197;27;45504;-68
2023/10/25 09:11:40;;;;;;;;;0.00;0.00;;;;;14.64;100.00;99224.97;5076802;27;46017;-68
2023/10/25 09:14:06;;;;;;;;;0.33;0.33;;;;;14.62;100.00;99221.59;5077369;28;45434;-68
2023/10/25 09:16:32;;;;;;;;;0.67;0.67;;;;;14.52;100.00;99208.28;5075292;28;45679;-68
2023/10/25 09:19:01;;;;;;;;;1.00;1.00;;;;;14.53;100.00;99220.56;5081591;27;45418;-68
2023/10/25 09:21:27;;;;;;;;;0.00;0.00;;;;;14.68;100.00;99236.16;5056839;28;46223;-67
2023/10/25 09:23:59;;;;;;;;;0.00;0.00;;;;;14.67;100.00;99235.31;5077485;28;45552;-67
2023/10/25 09:26:31;;;;;;;;;0.00;0.00;;;;;14.45;100.00;99206.28;5060813;28;45366;-68
2023/10/25 09:28:57;;;;;;;;;0.00;0.00;;;;;14.62;100.00;99226.06;5078380;28;45432;-68
2023/10/25 09:31:27;;;;;;;;;1.00;1.00;;;;;14.65;100.00;99231.13;5080161;28;45480;-68
2023/10/25 09:33:53;;;;;;;;;0.00;0.00;;;;;14.67;100.00;99235.31;5066288;28;45339;-68
2023/10/25 09:36:20;;;;;;;;;0.67;0.67;;;;;14.71;100.00;99228.75;5061996;28;45379;-67
2023/10/25 09:38:45;;;;;;;;;0.00;0.00;;;;;14.73;100.00;99213.47;5079003;28;45504;-67
2023/10/25 09:41:14;;;;;;;;;0.00;0.00;;;;;14.77;100.00;99230.03;5078017;28;46019;-68
2023/10/25 09:43:47;;;;;;;;;0.00;0.00;;;;;14.79;100.00;99226.25;5075116;28;45424;-67
2023/10/25 09:46:16;;;;;;;;;1.00;1.00;;;;;14.78;100.00;99226.41;5072388;28;45341;-68
2023/10/25 09:48:53;;;;;;;;;0.67;0.67;;;;;14.80;100.00;99232.41;5057114;28;45331;-68
2023/10/25 09:51:30;;;;;;;;;1.33;1.00;;;;;14.79;100.00;99230.75;5077261;28;45884;-68
2023/10/25 09:54:30;;;;;;;;;1.00;1.00;;;;;14.78;100.00;99237.88;5077907;28;45437;-68
2023/10/25 09:56:58;;;;;;;;;1.67;1.67;;;;;14.69;100.00;99225.38;5053562;28;45618;-68
2023/10/25 09:59:25;;;;;;;;;1.00;1.00;;;;;14.68;100.00;99231.69;5059853;28;45534;-68
2023/10/25 10:01:51;;;;;;;;;2.00;2.00;;;;;14.73;100.00;99239.25;5062678;28;45298;-68
2023/10/25 10:04:39;;;;;;;;;1.00;1.00;;;;;14.75;100.00;99232.00;5069210;28;45482;-68
2023/10/25 10:07:18;;;;;;;;;1.00;1.00;;;;;14.56;100.00;99204.34;5052890;28;45409;-68
2023/10/25 10:10:08;;;;;;;;;1.00;1.00;;;;;14.72;100.00;99235.78;5058659;27;45291;-68
2023/10/25 10:12:35;;;;;;;;;1.00;1.00;;;;;14.76;100.00;99234.50;5093775;27;45678;-68
2023/10/25 10:15:01;;;;;;;;;1.00;1.00;;;;;14.87;100.00;99231.72;5081999;27;45431;-68
2023/10/25 10:17:28;;;;;;;;;0.33;0.33;;;;;14.81;100.00;99205.66;5081032;27;45567;-68
2023/10/25 10:19:54;;;;;;;;;2.00;1.00;;;;;14.93;100.00;99217.00;5075378;28;46984;-68
2023/10/25 10:22:19;;;;;;;;;2.00;1.00;;;;;15.01;100.00;99226.00;5080137;27;45372;-68
2023/10/25 10:25:03;;;;;;;;;1.00;1.00;;;;;15.10;100.00;99227.00;5069287;27;45315;-68
2023/10/25 10:27:41;;;;;;;;;2.00;2.00;;;;;15.16;100.00;99228.25;5064154;27;45656;-68
2023/10/25 10:30:41;;;;;;;;;3.33;1.00;;;;;15.22;100.00;99231.19;5078011;28;45564;-68
2023/10/25 10:33:12;;;;;;;;;1.00;1.00;;;;;15.14;100.00;99212.44;5071712;27;45915;-68
2023/10/25 10:36:01;;;;;;;;;2.00;2.00;;;;;15.32;100.00;99229.38;5084812;27;45484;-68
2023/10/25 10:38:27;;;;;;;;;2.00;2.00;;;;;15.24;100.00;99207.09;5075003;27;45440;-68
2023/10/25 10:41:01;;;;;;;;;1.00;1.00;;;;;15.35;100.00;99229.09;5058012;28;45332;-68
2023/10/25 10:43:26;;;;;;;;;1.00;1.00;;;;;15.16;100.00;99202.47;5077900;28;45373;-68
2023/10/25 10:45:53;;;;;;;;;1.00;1.00;;;;;15.31;100.00;99237.53;5061428;28;45311;-68
2023/10/25 10:48:21;;;;;;;;;1.00;1.00;;;;;15.09;100.00;99214.66;5076295;28;45394;-71
2023/10/25 10:50:47;;;;;;;;;1.00;1.00;;;;;15.00;100.00;99207.50;5071268;27;45649;-68
2023/10/25 10:53:13;;;;;;;;;1.00;1.00;;;;;15.07;100.00;99229.94;5058618;28;47014;-68
2023/10/25 10:55:40;;;;;;;;;1.00;1.00;;;;;14.96;100.00;99233.56;5050999;28;45416;-68
2023/10/25 10:58:05;;;;;;;;;2.67;2.00;;;;;14.96;100.00;99233.56;5075662;27;45416;-68
2023/10/25 11:00:31;;;;;;;;;0.00;0.00;;;;;14.96;100.00;99236.22;5066292;28;45361;-68
2023/10/25 11:03:00;;;;;;;;;1.00;1.00;;;;;14.95;100.00;99237.19;5072889;27;46463;-68
2023/10/25 11:05:25;;;;;;;;;1.00;1.00;;;;;14.77;100.00;99225.53;5073186;27;46419;-68
2023/10/25 11:07:53;;;;;;;;;1.00;1.00;;;;;14.88;100.00;99238.75;5073796;28;46869;-68
2023/10/25 11:10:19;;;;;;;;;1.67;1.67;;;;;14.78;100.00;99242.34;5061167;28;45446;-68
2023/10/25 11:12:45;;;;;;;;;1.67;1.67;;;;;14.68;100.00;99220.22;5074318;27;45444;-68
2023/10/25 11:15:12;;;;;;;;;1.33;1.33;;;;;14.78;100.00;99242.34;5069096;27;45529;-68
2023/10/25 11:17:38;;;;;;;;;1.00;1.00;;;;;14.70;100.00;99227.06;5072174;27;47033;-68
2023/10/25 11:20:04;;;;;;;;;1.00;1.00;;;;;14.78;100.00;99221.91;5072102;28;45382;-68
2023/10/25 11:22:35;;;;;;;;;1.00;1.00;;;;;14.88;100.00;99238.75;5077147;28;46187;-68
2023/10/25 11:25:07;;;;;;;;;1.67;1.67;;;;;14.91;100.00;99242.94;5057378;28;45477;-68
2023/10/25 11:27:34;;;;;;;;;1.00;1.00;;;;;14.97;100.00;99237.91;5075371;28;45392;-68
2023/10/25 11:30:00;;;;;;;;;1.67;1.67;;;;;15.02;100.00;99245.47;5077903;28;45646;-68
2023/10/25 11:32:29;;;;;;;;;1.00;1.00;;;;;14.97;100.00;99234.41;5079479;28;46271;-68
2023/10/25 11:34:56;;;;;;;;;1.00;1.00;;;;;15.01;100.00;99234.00;5079587;28;45264;-68
2023/10/25 11:37:22;;;;;;;;;2.33;1.33;;;;;15.02;100.00;99235.66;5080004;28;45313;-68
2023/10/25 11:40:01;;;;;;;;;1.33;1.33;;;;;15.08;100.00;99245.75;5079853;28;45285;-68
2023/10/25 11:42:31;;;;;;;;;3.33;1.00;;;;;15.23;100.00;99237.38;5061723;28;47973;-68
2023/10/25 11:44:59;;;;;;;;;1.00;1.00;;;;;15.16;100.00;99220.25;5079573;28;45299;-68
2023/10/25 11:47:26;;;;;;;;;1.00;1.00;;;;;15.31;100.00;99240.19;5079675;28;45318;-68
2023/10/25 11:50:01;;;;;;;;;3.33;2.00;;;;;15.38;100.00;99250.13;5081245;28;45442;-69
2023/10/25 11:52:28;;;;;;;;;1.00;1.00;;;;;15.37;100.00;99244.94;5083240;28;45446;-69
2023/10/25 11:54:59;;;;;;;;;1.00;1.00;;;;;15.34;100.00;99250.56;5082960;28;45257;-68
2023/10/25 11:57:29;;;;;;;;;1.00;0.00;;;;;15.27;100.00;99257.41;5082367;28;45330;-69
2023/10/25 11:59:55;;;;;;;;;1.00;1.00;;;;;15.26;100.00;99243.25;5062602;28;45439;-68
2023/10/25 12:02:23;;;;;;;;;1.00;1.00;;;;;15.31;100.00;99246.34;5063276;28;45519;-68
2023/10/25 12:04:49;;;;;;;;;0.33;0.33;;;;;15.17;100.00;99228.13;5082822;28;45419;-68
2023/10/25 12:07:15;;;;;;;;;1.00;1.00;;;;;15.31;100.00;99245.50;5083064;28;45246;-68
2023/10/25 12:09:42;;;;;;;;;2.00;0.00;;;;;15.21;100.00;99221.53;5082753;27;45297;-68
2023/10/25 12:12:09;;;;;;;;;0.33;0.33;;;;;15.41;100.00;99254.34;5082775;28;45401;-69
2023/10/25 12:14:35;;;;;;;;;1.00;1.00;;;;;15.40;100.00;99255.31;5082448;28;45320;-68
2023/10/25 12:17:00;;;;;;;;;1.00;1.00;;;;;15.34;100.00;99258.56;5083118;27;45167;-68
2023/10/25 12:19:26;;;;;;;;;0.00;0.00;;;;;15.29;100.00;99258.09;5082443;27;45557;-68
2023/10/25 12:21:55;;;;;;;;;2.00;1.00;;;;;15.30;100.00;99263.31;5081662;28;48129;-68
2023/10/25 12:24:22;;;;;;;;;0.00;0.00;;;;;15.34;100.00;99272.72;5082649;27;45409;-69
2023/10/25 12:26:48;;;;;;;;;1.00;1.00;;;;;15.39;100.00;99269.63;5083006;27;45237;-69
2023/10/25 12:29:13;;;;;;;;;0.00;0.00;;;;;15.45;100.00;99275.22;5082760;27;45314;-68
2023/10/25 12:31:39;;;;;;;;;0.33;0.33;;;;;15.48;100.00;99266.97;5082726;27;45298;-69
2023/10/25 12:34:04;;;;;;;;;2.00;0.67;;;;;15.60;100.00;99283.69;5082272;27;45372;-68
2023/10/25 12:36:30;;;;;;;;;1.33;1.33;;;;;15.66;100.00;99293.78;5098809;27;45231;-68
2023/10/25 12:38:55;;;;;;;;;1.00;1.00;;;;;15.54;100.00;99261.09;5082592;27;45173;-68
2023/10/25 12:41:21;;;;;;;;;0.00;0.00;;;;;15.76;100.00;99283.09;5082504;27;45163;-69
2023/10/25 12:43:47;;;;;;;;;1.00;1.00;;;;;15.69;100.00;99274.84;5082253;27;45241;-68
2023/10/25 12:46:13;;;;;;;;;1.00;1.00;;;;;15.88;100.00;99282.81;5082452;27;45293;-68
2023/10/25 12:48:40;;;;;;;;;1.00;1.00;;;;;15.80;100.00;99264.03;5079948;28;45378;-68
2023/10/25 12:51:05;;;;;;;;;0.00;0.00;;;;;16.12;100.00;99299.19;5082325;28;45436;-68
2023/10/25 12:53:31;;;;;;;;;1.00;1.00;;;;;16.28;100.00;99295.06;5082227;27;45291;-69
2023/10/25 12:55:56;;;;;;;;;2.00;1.00;;;;;16.36;100.00;99301.34;5082652;27;45277;-68
2023/10/25 12:58:22;;;;;;;;;3.67;2.00;;;;;16.44;100.00;99293.47;5082176;27;45241;-68
2023/10/25 13:00:48;;;;;;;;;4.00;3.33;;;;;16.60;100.00;99300.88;5080766;28;46759;-69
2023/10/25 13:03:14;;;;;;;;;3.00;1.67;;;;;16.60;100.00;99279.53;5081845;27;45244;-68
2023/10/25 13:05:39;;;;;;;;;2.67;1.00;;;;;16.88;100.00;99299.06;5082060;27;45233;-69
2023/10/25 13:08:05;;;;;;;;;0.33;0.33;;;;;16.86;100.00;99298.34;5081039;28;45441;-68
2023/10/25 13:10:30;;;;;;;;;1.00;1.00;;;;;16.81;100.00;99277.47;5081930;27;45242;-68
2023/10/25 13:12:56;;;;;;;;;2.00;0.67;;;;;16.89;100.00;99309.59;5077226;28;45219;-68
2023/10/25 13:15:22;;;;;;;;;1.00;1.00;;;;;16.81;100.00;99292.63;5060665;28;45492;-69
2023/10/25 13:17:47;;;;;;;;;0.00;0.00;;;;;16.96;100.00;99302.66;5061333;28;45216;-69